createdAt,value
2022-08-17T00:00:42.700Z,99.90
2022-08-17T00:03:22.378Z,99.90
2022-08-17T00:05:52.981Z,99.90
2022-08-17T00:08:24.691Z,99.90
2022-08-17T00:10:54.011Z,99.90
2022-08-17T00:13:26.097Z,99.90
2022-08-17T00:15:59.827Z,99.90
2022-08-17T00:19:01.849Z,99.90
2022-08-17T00:21:25.169Z,99.90
2022-08-17T00:23:54.966Z,99.90
2022-08-17T00:26:34.870Z,99.90
2022-08-17T00:29:19.648Z,99.90
2022-08-17T00:31:49.068Z,99.90
2022-08-17T00:34:19.140Z,99.90
2022-08-17T00:36:50.447Z,99.90
2022-08-17T00:39:18.889Z,99.90
2022-08-17T00:41:47.876Z,99.90
2022-08-17T00:44:16.830Z,99.90
2022-08-17T00:46:47.853Z,99.90
2022-08-17T00:49:19.620Z,99.90
2022-08-17T00:51:53.641Z,99.90
2022-08-17T00:54:26.333Z,99.90
2022-08-17T00:57:03.769Z,99.90
2022-08-17T00:59:37.452Z,99.90
2022-08-17T01:02:07.808Z,99.90
2022-08-17T01:04:38.553Z,99.90
2022-08-17T01:07:07.856Z,99.90
2022-08-17T01:09:36.364Z,99.90
2022-08-17T01:12:09.179Z,99.90
2022-08-17T01:14:38.057Z,99.90
2022-08-17T01:17:09.740Z,99.90
2022-08-17T01:19:45.286Z,99.90
2022-08-17T01:22:25.844Z,99.90
2022-08-17T01:25:01.092Z,99.90
2022-08-17T01:27:32.857Z,99.90
2022-08-17T01:30:05.954Z,99.90
2022-08-17T01:32:54.413Z,99.90
2022-08-17T01:35:22.935Z,99.90
2022-08-17T01:37:52.760Z,99.90
2022-08-17T01:40:30.213Z,99.90
2022-08-17T01:43:07.391Z,99.90
2022-08-17T01:45:42.314Z,99.90
2022-08-17T01:48:11.195Z,99.90
2022-08-17T01:50:42.838Z,99.90
2022-08-17T01:53:15.440Z,99.90
2022-08-17T01:55:48.623Z,99.90
2022-08-17T01:58:17.477Z,99.90
2022-08-17T02:01:00.833Z,99.90
2022-08-17T02:03:30.912Z,99.90
2022-08-17T02:05:59.855Z,99.90
2022-08-17T02:08:39.087Z,99.90
2022-08-17T02:11:11.572Z,99.90
2022-08-17T02:13:40.786Z,99.90
2022-08-17T02:16:09.289Z,99.90
2022-08-17T02:18:38.126Z,99.90
2022-08-17T02:21:07.012Z,99.90
2022-08-17T02:23:40.557Z,99.90
2022-08-17T02:26:09.240Z,99.90
2022-08-17T02:28:54.948Z,99.90
2022-08-17T02:31:23.489Z,99.90
2022-08-17T02:33:56.896Z,99.90
2022-08-17T02:36:37.166Z,99.90
2022-08-17T02:39:09.092Z,99.90
2022-08-17T02:41:38.676Z,99.90
2022-08-17T02:44:10.317Z,99.90
2022-08-17T02:46:38.983Z,99.90
2022-08-17T02:49:07.500Z,99.90
2022-08-17T02:51:39.268Z,99.90
2022-08-17T02:54:40.445Z,99.90
2022-08-17T02:56:57.736Z,99.90
2022-08-17T02:59:26.491Z,99.90
2022-08-17T03:01:54.935Z,99.90
2022-08-17T03:04:23.817Z,99.90
2022-08-17T03:06:54.092Z,99.90
2022-08-17T03:09:24.051Z,99.90
2022-08-17T03:11:53.104Z,99.90
2022-08-17T03:14:26.084Z,99.90
2022-08-17T03:16:54.900Z,99.90
2022-08-17T03:19:23.652Z,99.90
2022-08-17T03:21:55.176Z,99.90
2022-08-17T03:24:28.838Z,99.90
2022-08-17T03:26:57.485Z,99.90
2022-08-17T03:29:26.152Z,99.90
2022-08-17T03:31:54.647Z,99.90
2022-08-17T03:34:23.355Z,99.90
2022-08-17T03:36:51.833Z,99.90
2022-08-17T03:39:20.256Z,99.90
2022-08-17T03:41:50.185Z,99.90
2022-08-17T03:44:18.753Z,99.90
2022-08-17T03:47:07.394Z,99.90
2022-08-17T03:49:53.319Z,99.90
2022-08-17T03:52:39.329Z,99.90
2022-08-17T03:55:29.451Z,99.90
2022-08-17T03:58:06.197Z,99.90
2022-08-17T04:00:39.715Z,99.90
2022-08-17T04:03:11.200Z,99.90
2022-08-17T04:05:39.737Z,99.90
2022-08-17T04:08:09.133Z,99.90
2022-08-17T04:10:44.817Z,99.90
2022-08-17T04:13:15.276Z,99.90
2022-08-17T04:15:52.794Z,99.90
2022-08-17T04:18:21.331Z,99.90
2022-08-17T04:20:51.888Z,99.90
2022-08-17T04:23:21.725Z,99.90
2022-08-17T04:25:51.779Z,99.90
2022-08-17T04:28:22.155Z,99.90
2022-08-17T04:30:53.529Z,99.90
2022-08-17T04:33:24.119Z,99.90
2022-08-17T04:35:56.135Z,99.90
2022-08-17T04:38:27.282Z,99.90
2022-08-17T04:41:14.184Z,99.90
2022-08-17T04:43:46.014Z,99.90
2022-08-17T04:46:17.457Z,99.90
2022-08-17T04:48:47.825Z,99.90
2022-08-17T04:51:18.584Z,99.90
2022-08-17T04:53:54.128Z,99.90
2022-08-17T04:56:24.053Z,99.90
2022-08-17T04:58:57.732Z,99.90
2022-08-17T05:01:29.374Z,99.90
2022-08-17T05:04:00.648Z,99.90
2022-08-17T05:06:50.547Z,99.90
2022-08-17T05:09:19.809Z,99.90
2022-08-17T05:11:48.690Z,99.90
2022-08-17T05:14:18.546Z,99.90
2022-08-17T05:16:49.339Z,99.90
2022-08-17T05:19:17.696Z,99.90
2022-08-17T05:21:46.250Z,99.90
2022-08-17T05:24:42.618Z,99.90
2022-08-17T05:27:06.511Z,99.90
2022-08-17T05:29:36.918Z,99.90
2022-08-17T05:32:38.614Z,99.90
2022-08-17T05:35:00.529Z,99.90
2022-08-17T05:37:29.236Z,99.90
2022-08-17T05:39:57.803Z,99.90
2022-08-17T05:42:26.301Z,99.90
2022-08-17T05:44:58.475Z,99.90
2022-08-17T05:47:28.490Z,99.90
2022-08-17T05:49:57.050Z,99.90
2022-08-17T05:52:34.580Z,99.90
2022-08-17T05:55:14.997Z,99.90
2022-08-17T05:58:01.112Z,99.90
2022-08-17T06:00:41.994Z,99.90
2022-08-17T06:03:28.639Z,99.90
2022-08-17T06:06:08.485Z,99.90
2022-08-17T06:08:48.720Z,99.90
2022-08-17T06:11:27.743Z,99.90
2022-08-17T06:14:14.633Z,99.90
2022-08-17T06:16:48.821Z,99.90
2022-08-17T06:19:25.555Z,99.90
2022-08-17T06:21:57.225Z,99.90
2022-08-17T06:24:30.404Z,99.90
2022-08-17T06:27:06.607Z,99.90
2022-08-17T06:29:44.069Z,99.90
2022-08-17T06:32:16.169Z,99.90
2022-08-17T06:34:46.223Z,99.90
2022-08-17T06:37:32.491Z,99.90
2022-08-17T06:40:15.941Z,99.90
2022-08-17T06:42:54.791Z,99.90
2022-08-17T06:45:39.123Z,99.90
2022-08-17T06:48:16.757Z,99.90
2022-08-17T06:50:49.606Z,99.90
2022-08-17T06:53:26.404Z,99.90
2022-08-17T06:55:59.977Z,99.90
2022-08-17T06:58:31.613Z,99.90
2022-08-17T07:01:10.848Z,99.90
2022-08-17T07:03:54.859Z,99.90
2022-08-17T07:06:28.624Z,99.90
2022-08-17T07:09:02.865Z,99.90
2022-08-17T07:11:36.015Z,99.90
2022-08-17T07:14:28.561Z,99.90
2022-08-17T07:17:00.838Z,99.90
2022-08-17T07:19:33.929Z,99.90
2022-08-17T07:22:14.082Z,99.90
2022-08-17T07:24:51.506Z,99.90
2022-08-17T07:27:22.229Z,99.90
2022-08-17T07:29:54.787Z,99.90
2022-08-17T07:32:27.793Z,99.90
2022-08-17T07:35:15.473Z,99.90
2022-08-17T07:37:46.474Z,99.90
2022-08-17T07:40:22.670Z,99.90
2022-08-17T07:43:23.025Z,99.90
2022-08-17T07:46:17.827Z,99.90
2022-08-17T07:48:50.731Z,99.90
2022-08-17T07:51:26.189Z,99.90
2022-08-17T07:54:13.207Z,99.90
2022-08-17T07:56:45.609Z,99.90
2022-08-17T07:59:23.011Z,99.90
2022-08-17T08:02:06.210Z,99.90
2022-08-17T08:07:31.927Z,99.90
2022-08-17T08:10:07.861Z,99.50
2022-08-17T08:12:38.224Z,99.10
2022-08-17T08:15:18.978Z,99.20
2022-08-17T08:17:52.267Z,98.30
2022-08-17T08:20:47.720Z,98.50
2022-08-17T08:23:30.039Z,98.90
2022-08-17T08:26:09.202Z,98.10
2022-08-17T08:28:48.241Z,97.70
2022-08-17T08:31:27.186Z,97.90
2022-08-17T08:34:09.158Z,97.70
2022-08-17T08:37:15.876Z,97.60
2022-08-17T08:39:55.492Z,97.80
2022-08-17T08:42:35.737Z,97.70
2022-08-17T08:45:13.729Z,97.60
2022-08-17T08:47:58.084Z,97.40
2022-08-17T08:50:42.796Z,97.30
2022-08-17T08:53:23.645Z,97.60
2022-08-17T08:56:00.001Z,97.60
2022-08-17T08:58:41.589Z,97.60
2022-08-17T09:01:22.203Z,98.00
2022-08-17T09:04:24.680Z,98.10
2022-08-17T09:07:03.799Z,97.80
2022-08-17T09:09:59.332Z,97.90
2022-08-17T09:12:42.101Z,97.80
2022-08-17T09:15:17.782Z,98.10
2022-08-17T09:18:14.542Z,98.10
2022-08-17T09:20:50.025Z,97.80
2022-08-17T09:23:30.445Z,97.80
2022-08-17T09:26:05.265Z,97.40
2022-08-17T09:28:39.619Z,97.50
2022-08-17T09:31:12.278Z,97.70
2022-08-17T09:33:46.859Z,97.90
2022-08-17T09:36:20.112Z,97.60
2022-08-17T09:39:01.065Z,97.80
2022-08-17T09:41:38.905Z,97.90
2022-08-17T09:44:27.358Z,98.00
2022-08-17T09:47:01.777Z,98.20
2022-08-17T09:49:34.361Z,98.30
2022-08-17T09:52:10.864Z,98.30
2022-08-17T09:54:41.445Z,98.50
2022-08-17T09:57:33.247Z,98.90
2022-08-17T10:00:20.487Z,99.20
2022-08-17T10:03:16.366Z,98.90
2022-08-17T10:05:57.169Z,98.90
2022-08-17T10:08:37.733Z,99.00
2022-08-17T10:11:27.960Z,99.20
2022-08-17T10:14:36.950Z,99.20
2022-08-17T10:17:10.009Z,98.80
2022-08-17T10:19:43.978Z,99.10
2022-08-17T10:22:37.941Z,99.00
2022-08-17T10:25:42.582Z,99.30
2022-08-17T10:28:25.811Z,99.20
2022-08-17T10:31:33.165Z,99.10
2022-08-17T10:34:06.290Z,99.00
2022-08-17T10:36:47.446Z,99.40
2022-08-17T10:39:26.955Z,99.50
2022-08-17T10:41:59.177Z,99.60
2022-08-17T10:44:41.250Z,99.50
2022-08-17T10:47:15.490Z,99.00
2022-08-17T10:49:53.702Z,98.90
2022-08-17T10:52:50.160Z,99.20
2022-08-17T10:55:20.462Z,99.20
2022-08-17T10:57:54.829Z,99.00
2022-08-17T11:01:08.954Z,98.80
2022-08-17T11:03:37.644Z,98.70
2022-08-17T11:06:19.381Z,98.50
2022-08-17T11:09:24.030Z,97.00
2022-08-17T11:12:11.966Z,96.30
2022-08-17T11:14:56.268Z,96.20
2022-08-17T11:17:51.941Z,95.70
2022-08-17T11:20:38.733Z,95.70
2022-08-17T11:23:40.814Z,95.70
2022-08-17T11:26:26.256Z,95.60
2022-08-17T11:29:01.386Z,95.30
2022-08-17T11:31:38.280Z,95.60
2022-08-17T11:34:15.232Z,94.50
2022-08-17T11:37:25.612Z,94.90
2022-08-17T11:40:41.165Z,94.20
2022-08-17T11:43:31.251Z,93.90
2022-08-17T11:46:17.196Z,93.90
2022-08-17T11:49:16.595Z,93.40
2022-08-17T11:52:14.251Z,92.60
2022-08-17T11:54:46.431Z,92.20
2022-08-17T11:57:47.122Z,91.80
2022-08-17T12:00:49.813Z,91.40
2022-08-17T12:03:54.479Z,91.70
2022-08-17T12:06:45.252Z,90.20
2022-08-17T12:09:18.527Z,90.00
2022-08-17T12:12:04.598Z,90.00
2022-08-17T12:15:09.030Z,90.50
2022-08-17T12:17:41.299Z,90.60
2022-08-17T12:20:21.523Z,90.40
2022-08-17T12:23:01.294Z,87.60
2022-08-17T12:25:39.438Z,87.20
2022-08-17T12:28:28.690Z,86.30
2022-08-17T12:31:01.223Z,85.90
2022-08-17T12:33:30.180Z,85.70
2022-08-17T12:36:03.948Z,86.70
2022-08-17T12:38:38.331Z,86.50
2022-08-17T12:41:36.349Z,86.30
2022-08-17T12:44:09.575Z,86.50
2022-08-17T12:46:53.204Z,88.00
2022-08-17T12:49:26.474Z,87.40
2022-08-17T12:52:06.889Z,86.40
2022-08-17T12:54:48.365Z,85.30
2022-08-17T12:57:20.523Z,85.20
2022-08-17T12:59:52.977Z,85.50
2022-08-17T13:02:40.164Z,85.60
2022-08-17T13:05:19.047Z,85.50
2022-08-17T13:07:49.508Z,85.70
2022-08-17T13:10:37.382Z,85.80
2022-08-17T13:13:21.917Z,86.70
2022-08-17T13:15:55.549Z,87.00
2022-08-17T13:18:41.693Z,86.70
2022-08-17T13:21:20.034Z,87.30
2022-08-17T13:24:01.446Z,87.20
2022-08-17T13:26:34.396Z,87.80
2022-08-17T13:29:06.038Z,87.80
2022-08-17T13:31:52.607Z,88.90
2022-08-17T13:34:48.945Z,88.40
2022-08-17T13:37:30.245Z,88.50
2022-08-17T13:40:05.892Z,89.10
2022-08-17T13:42:52.585Z,90.30
2022-08-17T13:45:44.747Z,90.60
2022-08-17T13:48:23.484Z,90.70
2022-08-17T13:51:23.862Z,91.80
2022-08-17T13:53:59.760Z,92.50
2022-08-17T13:56:47.836Z,93.10
2022-08-17T13:59:53.298Z,93.40
2022-08-17T14:02:17.639Z,93.40
2022-08-17T14:04:48.550Z,93.40
2022-08-17T14:07:35.429Z,93.50
2022-08-17T14:10:08.820Z,93.70
2022-08-17T14:12:41.086Z,93.90
2022-08-17T14:15:11.823Z,93.80
2022-08-17T14:17:40.367Z,94.00
2022-08-17T14:20:12.165Z,93.80
2022-08-17T14:22:44.314Z,93.30
2022-08-17T14:25:14.299Z,93.30
2022-08-17T14:27:53.652Z,93.30
2022-08-17T14:30:25.419Z,93.10
2022-08-17T14:32:57.613Z,93.00
2022-08-17T14:35:27.986Z,93.10
2022-08-17T14:37:57.569Z,93.30
2022-08-17T14:40:27.248Z,93.70
2022-08-17T14:42:58.488Z,93.50
2022-08-17T14:45:33.230Z,93.70
2022-08-17T14:48:05.700Z,94.00
2022-08-17T14:50:35.572Z,93.90
2022-08-17T14:53:06.094Z,94.30
2022-08-17T14:55:35.532Z,95.20
2022-08-17T14:58:05.472Z,95.80
2022-08-17T15:00:34.684Z,97.10
2022-08-17T15:03:03.543Z,97.50
2022-08-17T15:05:34.601Z,98.10
2022-08-17T15:08:04.676Z,98.70
2022-08-17T15:10:33.781Z,99.20
2022-08-17T15:13:02.439Z,99.40
2022-08-17T15:15:32.377Z,99.50
2022-08-17T15:18:01.244Z,99.90
2022-08-17T15:20:31.049Z,99.90
2022-08-17T15:23:00.205Z,99.90
2022-08-17T15:25:31.878Z,99.90
2022-08-17T15:28:01.769Z,99.90
2022-08-17T15:30:32.652Z,99.90
2022-08-17T15:33:02.118Z,99.90
2022-08-17T15:35:34.202Z,99.90
2022-08-17T15:38:11.091Z,99.90
2022-08-17T15:40:42.706Z,99.90
2022-08-17T15:43:13.251Z,99.90
2022-08-17T15:45:43.237Z,99.90
2022-08-17T15:48:14.206Z,99.90
2022-08-17T15:50:43.377Z,99.90
2022-08-17T15:53:11.799Z,99.90
2022-08-17T15:55:43.963Z,99.90
2022-08-17T15:58:12.411Z,99.90
2022-08-17T16:00:51.574Z,99.90
2022-08-17T16:03:58.329Z,99.90
2022-08-17T16:06:12.061Z,99.90
2022-08-17T16:08:43.856Z,99.90
2022-08-17T16:11:13.777Z,99.90
2022-08-17T16:13:43.155Z,99.90
2022-08-17T16:16:24.790Z,99.90
2022-08-17T16:18:56.999Z,99.90
2022-08-17T16:21:29.739Z,99.90
2022-08-17T16:24:03.525Z,99.90
2022-08-17T16:26:33.473Z,99.90
2022-08-17T16:29:07.838Z,99.90
2022-08-17T16:31:38.594Z,99.90
2022-08-17T16:34:17.160Z,99.90
2022-08-17T16:36:55.559Z,99.90
2022-08-17T16:39:26.636Z,99.90
2022-08-17T16:41:56.032Z,99.90
2022-08-17T16:44:25.821Z,99.90
2022-08-17T16:46:56.043Z,99.90
2022-08-17T16:49:36.375Z,99.90
2022-08-17T16:52:07.670Z,99.90
2022-08-17T16:54:38.564Z,99.90
2022-08-17T16:57:07.260Z,99.90
2022-08-17T16:59:41.946Z,99.90
2022-08-17T17:02:25.374Z,99.90
2022-08-17T17:04:57.649Z,99.90
2022-08-17T17:07:51.811Z,99.90
2022-08-17T17:10:23.544Z,99.90
2022-08-17T17:13:03.804Z,99.90
2022-08-17T17:15:47.414Z,99.90
2022-08-17T17:18:17.756Z,99.90
2022-08-17T17:20:55.197Z,99.90
2022-08-17T17:23:40.863Z,99.90
2022-08-17T17:26:30.253Z,99.90
2022-08-17T17:29:19.455Z,99.90
2022-08-17T17:31:57.184Z,99.90
2022-08-17T17:34:36.138Z,99.90
2022-08-17T17:37:09.283Z,99.90
2022-08-17T17:39:45.246Z,99.90
2022-08-17T17:42:19.898Z,99.90
2022-08-17T17:44:53.315Z,99.90
2022-08-17T17:47:22.405Z,99.90
2022-08-17T17:49:54.990Z,99.90
2022-08-17T17:52:31.189Z,99.90
2022-08-17T17:55:08.757Z,99.90
2022-08-17T17:57:54.554Z,99.90
2022-08-17T18:00:25.492Z,99.90
2022-08-17T18:03:18.925Z,99.90
2022-08-17T18:05:58.532Z,99.90
2022-08-17T18:08:47.903Z,99.90
2022-08-17T18:11:34.773Z,99.90
2022-08-17T18:14:18.427Z,99.90
2022-08-17T18:16:50.200Z,99.90
2022-08-17T18:19:20.948Z,99.90
2022-08-17T18:21:55.836Z,99.90
2022-08-17T18:24:32.621Z,99.90
2022-08-17T18:27:08.427Z,99.90
2022-08-17T18:29:44.817Z,99.90
2022-08-17T18:32:31.281Z,99.90
2022-08-17T18:35:02.924Z,99.90
2022-08-17T18:37:45.007Z,99.90
2022-08-17T18:40:37.729Z,99.90
2022-08-17T18:43:15.192Z,99.90
2022-08-17T18:45:46.995Z,99.90
2022-08-17T18:48:29.762Z,99.90
2022-08-17T18:51:20.813Z,99.90
2022-08-17T18:54:15.085Z,99.90
2022-08-17T18:56:45.303Z,99.90
2022-08-17T18:59:33.410Z,99.90
2022-08-17T19:02:37.264Z,99.90
2022-08-17T19:05:13.506Z,99.90
2022-08-17T19:07:44.292Z,99.90
2022-08-17T19:10:22.410Z,99.90
2022-08-17T19:13:00.120Z,99.90
2022-08-17T19:15:34.264Z,99.90
2022-08-17T19:18:10.906Z,99.90
2022-08-17T19:20:46.718Z,99.90
2022-08-17T19:23:22.001Z,99.90
2022-08-17T19:25:54.245Z,99.90
2022-08-17T19:28:31.224Z,99.90
2022-08-17T19:31:04.084Z,99.90
2022-08-17T19:33:37.653Z,99.90
2022-08-17T19:36:09.349Z,99.90
2022-08-17T19:38:45.883Z,99.90
2022-08-17T19:41:28.238Z,99.90
2022-08-17T19:44:27.040Z,99.90
2022-08-17T19:47:06.249Z,99.90
2022-08-17T19:49:46.701Z,99.90
2022-08-17T19:52:44.417Z,99.90
2022-08-17T19:55:22.201Z,99.90
2022-08-17T19:58:03.133Z,99.90
2022-08-17T20:00:37.865Z,99.90
2022-08-17T20:03:16.582Z,99.90
2022-08-17T20:06:11.648Z,99.90
2022-08-17T20:08:41.129Z,99.90
2022-08-17T20:11:17.284Z,99.90
2022-08-17T20:13:54.794Z,99.90
2022-08-17T20:16:25.721Z,99.90
2022-08-17T20:19:02.778Z,99.90
2022-08-17T20:21:42.967Z,99.90
2022-08-17T20:24:23.485Z,99.90
2022-08-17T20:26:59.719Z,99.90
2022-08-17T20:29:37.147Z,99.90
2022-08-17T20:32:22.630Z,99.90
2022-08-17T20:35:04.948Z,99.90
2022-08-17T20:37:35.500Z,99.90
2022-08-17T20:40:20.588Z,99.90
2022-08-17T20:42:49.919Z,99.90
2022-08-17T20:46:05.706Z,99.90
2022-08-17T20:48:39.716Z,99.90
2022-08-17T20:51:20.133Z,99.90
2022-08-17T20:54:07.676Z,99.90
2022-08-17T20:56:57.359Z,99.90
2022-08-17T20:59:58.499Z,99.90
2022-08-17T21:02:29.884Z,99.90
2022-08-17T21:05:34.226Z,99.90
2022-08-17T21:08:17.052Z,99.90
2022-08-17T21:10:47.956Z,99.90
2022-08-17T21:13:57.976Z,99.90
2022-08-17T21:16:41.846Z,99.90
2022-08-17T21:19:25.566Z,99.90
2022-08-17T21:22:07.909Z,99.90
2022-08-17T21:24:45.022Z,99.90
2022-08-17T21:27:29.089Z,99.90
2022-08-17T21:30:21.789Z,99.90
2022-08-17T21:33:20.192Z,99.90
2022-08-17T21:36:16.275Z,99.90
2022-08-17T21:38:57.949Z,99.90
2022-08-17T21:41:30.636Z,99.90
2022-08-17T21:44:05.364Z,99.90
2022-08-17T21:46:39.748Z,99.90
2022-08-17T21:49:13.800Z,99.90
2022-08-17T21:51:50.006Z,99.90
2022-08-17T21:54:34.686Z,99.90
2022-08-17T21:57:06.896Z,99.90
2022-08-17T21:59:40.290Z,99.90
2022-08-17T22:02:17.650Z,99.90
2022-08-17T22:04:58.166Z,99.90
2022-08-17T22:07:40.639Z,99.90
2022-08-17T22:10:28.092Z,99.90
2022-08-17T22:13:05.885Z,99.90
2022-08-17T22:15:47.107Z,99.90
2022-08-17T22:18:20.294Z,99.90
2022-08-17T22:20:54.488Z,99.90
2022-08-17T22:23:45.229Z,99.90
2022-08-17T22:26:16.167Z,99.90
2022-08-17T22:28:47.537Z,99.90
2022-08-17T22:31:20.909Z,99.90
2022-08-17T22:33:51.050Z,99.90
2022-08-17T22:36:29.531Z,99.90
2022-08-17T22:39:01.071Z,99.90
2022-08-17T22:41:40.560Z,99.90
2022-08-17T22:44:15.813Z,99.90
2022-08-17T22:46:55.564Z,99.90
2022-08-17T22:49:27.468Z,99.90
2022-08-17T22:52:05.286Z,99.90
2022-08-17T22:54:53.278Z,99.90
2022-08-17T22:57:41.934Z,99.90
2022-08-17T23:00:29.435Z,99.90
2022-08-17T23:03:14.973Z,99.90
2022-08-17T23:05:45.896Z,99.90
2022-08-17T23:08:16.273Z,99.90
2022-08-17T23:10:47.132Z,99.90
2022-08-17T23:13:16.000Z,99.90
2022-08-17T23:15:48.191Z,99.90
2022-08-17T23:18:17.855Z,99.90
2022-08-17T23:20:47.293Z,99.90
2022-08-17T23:23:18.815Z,99.90
2022-08-17T23:25:51.764Z,99.90
2022-08-17T23:28:21.757Z,99.90
2022-08-17T23:30:50.521Z,99.90
2022-08-17T23:33:25.215Z,99.90
2022-08-17T23:35:54.062Z,99.90
2022-08-17T23:38:25.588Z,99.90
2022-08-17T23:40:55.978Z,99.90
2022-08-17T23:43:25.690Z,99.90
2022-08-17T23:46:00.665Z,99.90
2022-08-17T23:48:35.734Z,99.90
2022-08-17T23:51:09.855Z,99.90
2022-08-17T23:53:42.362Z,99.90
2022-08-17T23:56:12.239Z,99.90
2022-08-17T23:58:43.198Z,99.90
